sensor_id;sensor_type;location;lat;lon;timestamp;P1;durP1;ratioP1;P2;durP2;ratioP2
60014;SDS011;45867;52.480;6.056;2022-07-01T00:01:19;15.95;;;9.98;;
60014;SDS011;45867;52.480;6.056;2022-07-01T00:03:44;18.98;;;10.68;;
60014;SDS011;45867;52.480;6.056;2022-07-01T00:06:16;18.40;;;11.25;;
60014;SDS011;45867;52.480;6.056;2022-07-01T00:08:42;19.27;;;10.50;;
60014;SDS011;45867;52.480;6.056;2022-07-01T00:11:07;20.63;;;12.15;;
60014;SDS011;45867;52.480;6.056;2022-07-01T00:13:33;18.85;;;10.90;;
60014;SDS011;45867;52.480;6.056;2022-07-01T00:15:58;20.08;;;10.98;;
60014;SDS011;45867;52.480;6.056;2022-07-01T00:18:23;17.38;;;10.57;;
60014;SDS011;45867;52.480;6.056;2022-07-01T00:20:49;18.02;;;10.23;;
60014;SDS011;45867;52.480;6.056;2022-07-01T00:23:16;18.73;;;10.68;;
60014;SDS011;45867;52.480;6.056;2022-07-01T00:25:42;14.95;;;10.00;;
60014;SDS011;45867;52.480;6.056;2022-07-01T00:28:07;17.15;;;9.68;;
60014;SDS011;45867;52.480;6.056;2022-07-01T00:30:32;15.45;;;9.73;;
60014;SDS011;45867;52.480;6.056;2022-07-01T00:32:58;16.63;;;9.23;;
60014;SDS011;45867;52.480;6.056;2022-07-01T00:35:23;15.87;;;9.00;;
60014;SDS011;45867;52.480;6.056;2022-07-01T00:37:48;18.88;;;9.13;;
60014;SDS011;45867;52.480;6.056;2022-07-01T00:40:14;16.80;;;8.73;;
60014;SDS011;45867;52.480;6.056;2022-07-01T00:42:39;13.52;;;8.80;;
60014;SDS011;45867;52.480;6.056;2022-07-01T00:45:06;15.43;;;8.75;;
60014;SDS011;45867;52.480;6.056;2022-07-01T00:47:31;15.90;;;8.75;;
60014;SDS011;45867;52.480;6.056;2022-07-01T00:49:57;14.02;;;8.35;;
60014;SDS011;45867;52.480;6.056;2022-07-01T00:52:22;17.27;;;8.02;;
60014;SDS011;45867;52.480;6.056;2022-07-01T00:54:47;16.70;;;7.85;;
60014;SDS011;45867;52.480;6.056;2022-07-01T00:57:12;17.80;;;8.95;;
60014;SDS011;45867;52.480;6.056;2022-07-01T00:59:38;19.02;;;8.63;;
60014;SDS011;45867;52.480;6.056;2022-07-01T01:02:04;15.43;;;8.07;;
60014;SDS011;45867;52.480;6.056;2022-07-01T01:04:29;13.82;;;8.18;;
60014;SDS011;45867;52.480;6.056;2022-07-01T01:06:55;16.83;;;8.40;;
60014;SDS011;45867;52.480;6.056;2022-07-01T01:09:21;18.70;;;8.95;;
60014;SDS011;45867;52.480;6.056;2022-07-01T01:11:46;17.42;;;9.38;;
60014;SDS011;45867;52.480;6.056;2022-07-01T01:14:11;18.77;;;9.45;;
60014;SDS011;45867;52.480;6.056;2022-07-01T01:16:37;15.55;;;9.18;;
60014;SDS011;45867;52.480;6.056;2022-07-01T01:19:07;18.15;;;9.10;;
60014;SDS011;45867;52.480;6.056;2022-07-01T01:21:35;19.27;;;9.45;;
60014;SDS011;45867;52.480;6.056;2022-07-01T01:24:00;16.40;;;8.85;;
60014;SDS011;45867;52.480;6.056;2022-07-01T01:26:26;17.23;;;8.10;;
60014;SDS011;45867;52.480;6.056;2022-07-01T01:28:52;14.52;;;8.73;;
60014;SDS011;45867;52.480;6.056;2022-07-01T01:31:17;18.20;;;8.85;;
60014;SDS011;45867;52.480;6.056;2022-07-01T01:33:43;14.52;;;8.50;;
60014;SDS011;45867;52.480;6.056;2022-07-01T01:36:08;14.65;;;8.25;;
60014;SDS011;45867;52.480;6.056;2022-07-01T01:38:34;17.08;;;8.95;;
60014;SDS011;45867;52.480;6.056;2022-07-01T01:41:00;17.02;;;8.70;;
60014;SDS011;45867;52.480;6.056;2022-07-01T01:43:25;16.35;;;9.13;;
60014;SDS011;45867;52.480;6.056;2022-07-01T01:45:50;15.57;;;9.00;;
60014;SDS011;45867;52.480;6.056;2022-07-01T01:48:16;14.48;;;8.95;;
60014;SDS011;45867;52.480;6.056;2022-07-01T01:50:41;14.30;;;8.38;;
60014;SDS011;45867;52.480;6.056;2022-07-01T01:53:06;18.38;;;11.20;;
60014;SDS011;45867;52.480;6.056;2022-07-01T01:55:32;22.98;;;11.63;;
60014;SDS011;45867;52.480;6.056;2022-07-01T01:57:57;23.27;;;11.90;;
60014;SDS011;45867;52.480;6.056;2022-07-01T02:00:22;28.03;;;12.73;;
60014;SDS011;45867;52.480;6.056;2022-07-01T02:02:48;25.73;;;11.02;;
60014;SDS011;45867;52.480;6.056;2022-07-01T02:05:14;26.23;;;13.18;;
60014;SDS011;45867;52.480;6.056;2022-07-01T02:07:40;29.48;;;13.35;;
60014;SDS011;45867;52.480;6.056;2022-07-01T02:10:06;29.63;;;13.65;;
60014;SDS011;45867;52.480;6.056;2022-07-01T02:12:31;28.00;;;13.00;;
60014;SDS011;45867;52.480;6.056;2022-07-01T02:14:57;31.88;;;15.23;;
60014;SDS011;45867;52.480;6.056;2022-07-01T02:17:22;30.37;;;14.60;;
60014;SDS011;45867;52.480;6.056;2022-07-01T02:19:47;29.50;;;15.30;;
60014;SDS011;45867;52.480;6.056;2022-07-01T02:22:12;34.77;;;15.40;;
60014;SDS011;45867;52.480;6.056;2022-07-01T02:24:38;30.55;;;16.13;;
60014;SDS011;45867;52.480;6.056;2022-07-01T02:27:03;39.67;;;17.38;;
60014;SDS011;45867;52.480;6.056;2022-07-01T02:29:28;34.28;;;16.75;;
60014;SDS011;45867;52.480;6.056;2022-07-01T02:31:54;30.98;;;14.52;;
60014;SDS011;45867;52.480;6.056;2022-07-01T02:34:19;36.22;;;15.57;;
60014;SDS011;45867;52.480;6.056;2022-07-01T02:36:44;37.25;;;16.80;;
60014;SDS011;45867;52.480;6.056;2022-07-01T02:39:10;34.63;;;17.45;;
60014;SDS011;45867;52.480;6.056;2022-07-01T02:41:35;36.05;;;18.23;;
60014;SDS011;45867;52.480;6.056;2022-07-01T02:44:20;33.25;;;17.63;;
60014;SDS011;45867;52.480;6.056;2022-07-01T02:46:46;35.70;;;17.70;;
60014;SDS011;45867;52.480;6.056;2022-07-01T02:49:11;43.78;;;17.98;;
60014;SDS011;45867;52.480;6.056;2022-07-01T02:51:36;38.40;;;18.73;;
60014;SDS011;45867;52.480;6.056;2022-07-01T02:54:01;33.57;;;16.93;;
60014;SDS011;45867;52.480;6.056;2022-07-01T02:56:30;35.08;;;16.75;;
60014;SDS011;45867;52.480;6.056;2022-07-01T02:58:55;40.70;;;19.88;;
60014;SDS011;45867;52.480;6.056;2022-07-01T03:01:20;40.63;;;20.75;;
60014;SDS011;45867;52.480;6.056;2022-07-01T03:03:46;37.90;;;19.27;;
60014;SDS011;45867;52.480;6.056;2022-07-01T03:06:11;38.78;;;18.95;;
60014;SDS011;45867;52.480;6.056;2022-07-01T03:08:36;43.60;;;21.48;;
60014;SDS011;45867;52.480;6.056;2022-07-01T03:11:01;43.72;;;20.50;;
60014;SDS011;45867;52.480;6.056;2022-07-01T03:13:27;41.08;;;20.98;;
60014;SDS011;45867;52.480;6.056;2022-07-01T03:15:52;46.00;;;21.55;;
60014;SDS011;45867;52.480;6.056;2022-07-01T03:18:17;46.30;;;20.83;;
60014;SDS011;45867;52.480;6.056;2022-07-01T03:20:45;46.67;;;20.00;;
60014;SDS011;45867;52.480;6.056;2022-07-01T03:23:11;44.78;;;21.98;;
60014;SDS011;45867;52.480;6.056;2022-07-01T03:25:36;38.08;;;20.88;;
60014;SDS011;45867;52.480;6.056;2022-07-01T03:28:02;40.50;;;21.02;;
60014;SDS011;45867;52.480;6.056;2022-07-01T03:30:28;42.97;;;20.92;;
60014;SDS011;45867;52.480;6.056;2022-07-01T03:32:53;44.70;;;22.58;;
60014;SDS011;45867;52.480;6.056;2022-07-01T03:35:18;44.13;;;21.35;;
60014;SDS011;45867;52.480;6.056;2022-07-01T03:38:04;46.58;;;22.20;;
60014;SDS011;45867;52.480;6.056;2022-07-01T03:40:30;45.03;;;23.05;;
60014;SDS011;45867;52.480;6.056;2022-07-01T03:42:56;59.17;;;24.90;;
60014;SDS011;45867;52.480;6.056;2022-07-01T03:45:21;44.05;;;21.58;;
60014;SDS011;45867;52.480;6.056;2022-07-01T03:47:50;51.65;;;22.88;;
60014;SDS011;45867;52.480;6.056;2022-07-01T03:50:16;44.50;;;21.95;;
60014;SDS011;45867;52.480;6.056;2022-07-01T03:52:41;51.95;;;23.95;;
60014;SDS011;45867;52.480;6.056;2022-07-01T03:55:08;49.30;;;22.98;;
60014;SDS011;45867;52.480;6.056;2022-07-01T03:57:33;47.45;;;23.60;;
60014;SDS011;45867;52.480;6.056;2022-07-01T03:59:58;44.10;;;22.70;;
60014;SDS011;45867;52.480;6.056;2022-07-01T04:02:24;42.70;;;21.00;;
60014;SDS011;45867;52.480;6.056;2022-07-01T04:04:49;51.83;;;24.00;;
60014;SDS011;45867;52.480;6.056;2022-07-01T04:07:14;50.80;;;24.13;;
60014;SDS011;45867;52.480;6.056;2022-07-01T04:09:39;53.25;;;24.25;;
60014;SDS011;45867;52.480;6.056;2022-07-01T04:12:05;50.13;;;23.50;;
60014;SDS011;45867;52.480;6.056;2022-07-01T04:14:33;48.55;;;23.70;;
60014;SDS011;45867;52.480;6.056;2022-07-01T04:16:58;46.40;;;23.05;;
60014;SDS011;45867;52.480;6.056;2022-07-01T04:19:24;43.80;;;21.95;;
60014;SDS011;45867;52.480;6.056;2022-07-01T04:21:49;44.25;;;22.70;;
60014;SDS011;45867;52.480;6.056;2022-07-01T04:24:33;48.40;;;24.17;;
60014;SDS011;45867;52.480;6.056;2022-07-01T04:26:59;48.88;;;22.67;;
60014;SDS011;45867;52.480;6.056;2022-07-01T04:29:25;43.92;;;21.45;;
60014;SDS011;45867;52.480;6.056;2022-07-01T04:31:52;42.72;;;21.75;;
60014;SDS011;45867;52.480;6.056;2022-07-01T04:34:17;46.08;;;22.92;;
60014;SDS011;45867;52.480;6.056;2022-07-01T04:36:43;48.35;;;22.73;;
60014;SDS011;45867;52.480;6.056;2022-07-01T04:39:08;48.63;;;24.25;;
60014;SDS011;45867;52.480;6.056;2022-07-01T04:41:33;42.33;;;21.58;;
60014;SDS011;45867;52.480;6.056;2022-07-01T04:44:18;42.25;;;20.33;;
60014;SDS011;45867;52.480;6.056;2022-07-01T04:46:43;42.47;;;21.75;;
60014;SDS011;45867;52.480;6.056;2022-07-01T04:49:08;45.28;;;21.65;;
60014;SDS011;45867;52.480;6.056;2022-07-01T04:51:34;43.45;;;22.13;;
60014;SDS011;45867;52.480;6.056;2022-07-01T04:54:01;43.38;;;22.42;;
60014;SDS011;45867;52.480;6.056;2022-07-01T04:56:27;44.17;;;22.25;;
60014;SDS011;45867;52.480;6.056;2022-07-01T05:02:08;41.28;;;20.85;;
60014;SDS011;45867;52.480;6.056;2022-07-01T05:04:34;44.45;;;21.58;;
60014;SDS011;45867;52.480;6.056;2022-07-01T05:06:59;44.17;;;20.38;;
60014;SDS011;45867;52.480;6.056;2022-07-01T05:09:24;45.85;;;22.40;;
60014;SDS011;45867;52.480;6.056;2022-07-01T05:11:50;43.17;;;22.50;;
60014;SDS011;45867;52.480;6.056;2022-07-01T05:14:18;44.80;;;21.25;;
60014;SDS011;45867;52.480;6.056;2022-07-01T05:16:43;47.45;;;22.02;;
60014;SDS011;45867;52.480;6.056;2022-07-01T05:19:08;42.67;;;21.67;;
60014;SDS011;45867;52.480;6.056;2022-07-01T05:21:52;40.25;;;21.20;;
60014;SDS011;45867;52.480;6.056;2022-07-01T05:24:21;42.00;;;22.15;;
60014;SDS011;45867;52.480;6.056;2022-07-01T05:26:46;42.13;;;22.50;;
60014;SDS011;45867;52.480;6.056;2022-07-01T05:29:11;44.63;;;21.90;;
60014;SDS011;45867;52.480;6.056;2022-07-01T05:31:36;39.00;;;20.50;;
60014;SDS011;45867;52.480;6.056;2022-07-01T05:34:02;43.45;;;22.50;;
60014;SDS011;45867;52.480;6.056;2022-07-01T05:36:27;45.65;;;21.77;;
60014;SDS011;45867;52.480;6.056;2022-07-01T05:38:53;41.80;;;22.63;;
60014;SDS011;45867;52.480;6.056;2022-07-01T05:41:18;42.03;;;20.00;;
60014;SDS011;45867;52.480;6.056;2022-07-01T05:43:44;46.17;;;22.02;;
60014;SDS011;45867;52.480;6.056;2022-07-01T05:46:09;38.83;;;21.55;;
60014;SDS011;45867;52.480;6.056;2022-07-01T05:48:34;40.55;;;21.55;;
60014;SDS011;45867;52.480;6.056;2022-07-01T05:50:59;43.72;;;22.83;;
60014;SDS011;45867;52.480;6.056;2022-07-01T05:53:25;41.92;;;21.85;;
60014;SDS011;45867;52.480;6.056;2022-07-01T05:55:50;46.15;;;22.10;;
60014;SDS011;45867;52.480;6.056;2022-07-01T05:58:15;39.28;;;21.15;;
60014;SDS011;45867;52.480;6.056;2022-07-01T06:00:41;43.33;;;20.20;;
60014;SDS011;45867;52.480;6.056;2022-07-01T06:03:10;39.08;;;20.98;;
60014;SDS011;45867;52.480;6.056;2022-07-01T06:05:36;34.08;;;17.70;;
60014;SDS011;45867;52.480;6.056;2022-07-01T06:08:01;38.35;;;20.70;;
60014;SDS011;45867;52.480;6.056;2022-07-01T06:10:27;43.85;;;19.52;;
60014;SDS011;45867;52.480;6.056;2022-07-01T06:12:58;39.75;;;19.60;;
60014;SDS011;45867;52.480;6.056;2022-07-01T06:18:37;34.65;;;18.17;;
60014;SDS011;45867;52.480;6.056;2022-07-01T06:21:03;41.63;;;20.85;;
60014;SDS011;45867;52.480;6.056;2022-07-01T06:23:30;41.30;;;18.98;;
60014;SDS011;45867;52.480;6.056;2022-07-01T06:25:56;37.42;;;19.90;;
60014;SDS011;45867;52.480;6.056;2022-07-01T06:28:21;37.28;;;19.95;;
60014;SDS011;45867;52.480;6.056;2022-07-01T06:30:49;38.60;;;19.88;;
60014;SDS011;45867;52.480;6.056;2022-07-01T06:33:15;36.38;;;18.23;;
60014;SDS011;45867;52.480;6.056;2022-07-01T06:35:43;43.22;;;20.35;;
60014;SDS011;45867;52.480;6.056;2022-07-01T06:38:14;37.25;;;19.23;;
60014;SDS011;45867;52.480;6.056;2022-07-01T06:40:42;40.20;;;19.05;;
60014;SDS011;45867;52.480;6.056;2022-07-01T06:43:07;47.75;;;20.73;;
60014;SDS011;45867;52.480;6.056;2022-07-01T06:45:32;36.15;;;17.92;;
60014;SDS011;45867;52.480;6.056;2022-07-01T06:47:58;45.13;;;18.83;;
60014;SDS011;45867;52.480;6.056;2022-07-01T06:50:23;36.45;;;18.75;;
60014;SDS011;45867;52.480;6.056;2022-07-01T06:52:52;42.25;;;19.48;;
60014;SDS011;45867;52.480;6.056;2022-07-01T06:55:26;39.28;;;18.95;;
60014;SDS011;45867;52.480;6.056;2022-07-01T06:57:51;38.25;;;18.63;;
60014;SDS011;45867;52.480;6.056;2022-07-01T07:00:17;36.75;;;18.50;;
60014;SDS011;45867;52.480;6.056;2022-07-01T07:02:42;39.80;;;17.77;;
60014;SDS011;45867;52.480;6.056;2022-07-01T07:05:08;37.92;;;18.63;;
60014;SDS011;45867;52.480;6.056;2022-07-01T07:07:33;33.00;;;17.17;;
60014;SDS011;45867;52.480;6.056;2022-07-01T07:09:59;36.30;;;17.40;;
60014;SDS011;45867;52.480;6.056;2022-07-01T07:12:24;29.73;;;16.70;;
60014;SDS011;45867;52.480;6.056;2022-07-01T07:14:49;36.28;;;17.75;;
60014;SDS011;45867;52.480;6.056;2022-07-01T07:17:15;32.92;;;17.02;;
60014;SDS011;45867;52.480;6.056;2022-07-01T07:19:40;33.45;;;16.70;;
60014;SDS011;45867;52.480;6.056;2022-07-01T07:22:05;37.80;;;18.23;;
60014;SDS011;45867;52.480;6.056;2022-07-01T07:24:31;31.45;;;16.00;;
60014;SDS011;45867;52.480;6.056;2022-07-01T07:26:56;34.47;;;17.38;;
60014;SDS011;45867;52.480;6.056;2022-07-01T07:29:21;27.38;;;15.15;;
60014;SDS011;45867;52.480;6.056;2022-07-01T07:31:47;27.88;;;15.05;;
60014;SDS011;45867;52.480;6.056;2022-07-01T07:34:12;28.67;;;15.70;;
60014;SDS011;45867;52.480;6.056;2022-07-01T07:36:37;28.40;;;14.40;;
60014;SDS011;45867;52.480;6.056;2022-07-01T07:39:02;31.98;;;16.10;;
60014;SDS011;45867;52.480;6.056;2022-07-01T07:41:29;28.73;;;14.35;;
60014;SDS011;45867;52.480;6.056;2022-07-01T07:43:55;23.42;;;14.55;;
60014;SDS011;45867;52.480;6.056;2022-07-01T07:46:20;26.07;;;14.43;;
60014;SDS011;45867;52.480;6.056;2022-07-01T07:48:46;29.15;;;15.07;;
60014;SDS011;45867;52.480;6.056;2022-07-01T07:51:12;21.75;;;12.55;;
60014;SDS011;45867;52.480;6.056;2022-07-01T07:53:42;29.48;;;14.20;;
60014;SDS011;45867;52.480;6.056;2022-07-01T07:56:07;23.03;;;12.90;;
60014;SDS011;45867;52.480;6.056;2022-07-01T07:58:32;23.15;;;12.77;;
60014;SDS011;45867;52.480;6.056;2022-07-01T08:00:58;19.27;;;11.85;;
60014;SDS011;45867;52.480;6.056;2022-07-01T08:03:23;27.75;;;13.05;;
60014;SDS011;45867;52.480;6.056;2022-07-01T08:05:48;20.45;;;11.50;;
60014;SDS011;45867;52.480;6.056;2022-07-01T08:08:14;25.15;;;12.15;;
60014;SDS011;45867;52.480;6.056;2022-07-01T08:13:55;19.70;;;11.10;;
60014;SDS011;45867;52.480;6.056;2022-07-01T08:16:21;20.90;;;10.00;;
60014;SDS011;45867;52.480;6.056;2022-07-01T08:18:47;16.35;;;8.98;;
60014;SDS011;45867;52.480;6.056;2022-07-01T08:21:12;18.63;;;9.32;;
60014;SDS011;45867;52.480;6.056;2022-07-01T08:23:37;16.00;;;9.80;;
60014;SDS011;45867;52.480;6.056;2022-07-01T08:26:03;16.67;;;9.60;;
60014;SDS011;45867;52.480;6.056;2022-07-01T08:28:28;16.63;;;9.27;;
60014;SDS011;45867;52.480;6.056;2022-07-01T08:30:53;17.35;;;8.35;;
60014;SDS011;45867;52.480;6.056;2022-07-01T08:33:18;15.98;;;8.32;;
60014;SDS011;45867;52.480;6.056;2022-07-01T08:35:44;14.02;;;7.43;;
60014;SDS011;45867;52.480;6.056;2022-07-01T08:38:09;14.27;;;7.93;;
60014;SDS011;45867;52.480;6.056;2022-07-01T08:40:34;13.98;;;7.18;;
60014;SDS011;45867;52.480;6.056;2022-07-01T08:43:01;15.00;;;6.78;;
60014;SDS011;45867;52.480;6.056;2022-07-01T08:45:27;9.13;;;5.65;;
60014;SDS011;45867;52.480;6.056;2022-07-01T08:47:54;10.15;;;5.40;;
60014;SDS011;45867;52.480;6.056;2022-07-01T08:50:23;12.57;;;5.68;;
60014;SDS011;45867;52.480;6.056;2022-07-01T08:52:49;11.73;;;5.05;;
60014;SDS011;45867;52.480;6.056;2022-07-01T08:55:14;8.43;;;5.45;;
60014;SDS011;45867;52.480;6.056;2022-07-01T08:57:39;10.60;;;5.43;;
60014;SDS011;45867;52.480;6.056;2022-07-01T09:00:05;8.10;;;5.10;;
60014;SDS011;45867;52.480;6.056;2022-07-01T09:02:48;11.68;;;4.97;;
60014;SDS011;45867;52.480;6.056;2022-07-01T09:05:14;8.63;;;4.55;;
60014;SDS011;45867;52.480;6.056;2022-07-01T09:07:42;10.38;;;3.90;;
60014;SDS011;45867;52.480;6.056;2022-07-01T09:10:17;8.48;;;3.70;;
60014;SDS011;45867;52.480;6.056;2022-07-01T09:12:43;10.55;;;3.70;;
60014;SDS011;45867;52.480;6.056;2022-07-01T09:15:18;6.70;;;3.67;;
60014;SDS011;45867;52.480;6.056;2022-07-01T09:17:44;13.43;;;3.55;;
60014;SDS011;45867;52.480;6.056;2022-07-01T09:20:16;10.93;;;3.63;;
60014;SDS011;45867;52.480;6.056;2022-07-01T09:23:05;8.00;;;3.42;;
60014;SDS011;45867;52.480;6.056;2022-07-01T09:25:31;12.00;;;3.25;;
60014;SDS011;45867;52.480;6.056;2022-07-01T09:28:07;7.43;;;2.80;;
60014;SDS011;45867;52.480;6.056;2022-07-01T09:30:35;8.80;;;3.33;;
60014;SDS011;45867;52.480;6.056;2022-07-01T09:33:04;7.05;;;3.20;;
60014;SDS011;45867;52.480;6.056;2022-07-01T09:35:30;7.75;;;2.67;;
60014;SDS011;45867;52.480;6.056;2022-07-01T09:37:56;6.93;;;2.85;;
60014;SDS011;45867;52.480;6.056;2022-07-01T09:40:21;9.50;;;2.65;;
60014;SDS011;45867;52.480;6.056;2022-07-01T09:42:48;6.47;;;2.47;;
60014;SDS011;45867;52.480;6.056;2022-07-01T09:45:13;5.30;;;1.90;;
60014;SDS011;45867;52.480;6.056;2022-07-01T09:47:39;7.57;;;2.30;;
60014;SDS011;45867;52.480;6.056;2022-07-01T09:50:05;10.85;;;2.30;;
60014;SDS011;45867;52.480;6.056;2022-07-01T09:52:31;6.68;;;2.25;;
60014;SDS011;45867;52.480;6.056;2022-07-01T09:54:56;10.60;;;1.73;;
60014;SDS011;45867;52.480;6.056;2022-07-01T09:57:21;7.27;;;2.03;;
60014;SDS011;45867;52.480;6.056;2022-07-01T09:59:50;6.22;;;2.05;;
60014;SDS011;45867;52.480;6.056;2022-07-01T10:02:18;5.95;;;2.13;;
60014;SDS011;45867;52.480;6.056;2022-07-01T10:04:49;6.65;;;1.85;;
60014;SDS011;45867;52.480;6.056;2022-07-01T10:10:04;7.20;;;1.90;;
60014;SDS011;45867;52.480;6.056;2022-07-01T10:12:36;8.48;;;2.05;;
60014;SDS011;45867;52.480;6.056;2022-07-01T10:17:29;8.18;;;1.85;;
60014;SDS011;45867;52.480;6.056;2022-07-01T10:19:56;5.25;;;1.80;;
60014;SDS011;45867;52.480;6.056;2022-07-01T10:22:26;8.73;;;1.70;;
60014;SDS011;45867;52.480;6.056;2022-07-01T10:24:51;8.93;;;1.98;;
60014;SDS011;45867;52.480;6.056;2022-07-01T10:27:21;6.25;;;1.73;;
60014;SDS011;45867;52.480;6.056;2022-07-01T10:29:46;7.82;;;2.20;;
60014;SDS011;45867;52.480;6.056;2022-07-01T10:34:46;7.45;;;2.05;;
60014;SDS011;45867;52.480;6.056;2022-07-01T10:37:11;9.98;;;1.90;;
60014;SDS011;45867;52.480;6.056;2022-07-01T10:42:26;6.82;;;2.25;;
60014;SDS011;45867;52.480;6.056;2022-07-01T10:45:13;8.63;;;2.00;;
60014;SDS011;45867;52.480;6.056;2022-07-01T10:47:38;7.82;;;2.10;;
60014;SDS011;45867;52.480;6.056;2022-07-01T10:52:29;7.40;;;2.13;;
60014;SDS011;45867;52.480;6.056;2022-07-01T10:54:55;8.70;;;2.00;;
60014;SDS011;45867;52.480;6.056;2022-07-01T10:57:42;5.68;;;1.98;;
60014;SDS011;45867;52.480;6.056;2022-07-01T11:02:32;6.15;;;2.08;;
60014;SDS011;45867;52.480;6.056;2022-07-01T11:04:59;8.60;;;2.30;;
60014;SDS011;45867;52.480;6.056;2022-07-01T11:07:25;8.73;;;2.05;;
60014;SDS011;45867;52.480;6.056;2022-07-01T11:09:50;7.15;;;2.10;;
60014;SDS011;45867;52.480;6.056;2022-07-01T11:12:16;7.20;;;1.90;;
60014;SDS011;45867;52.480;6.056;2022-07-01T11:14:44;10.25;;;1.75;;
60014;SDS011;45867;52.480;6.056;2022-07-01T11:17:10;6.85;;;2.03;;
60014;SDS011;45867;52.480;6.056;2022-07-01T11:19:35;6.25;;;2.05;;
60014;SDS011;45867;52.480;6.056;2022-07-01T11:24:30;10.98;;;2.35;;
60014;SDS011;45867;52.480;6.056;2022-07-01T11:27:06;8.98;;;2.30;;
60014;SDS011;45867;52.480;6.056;2022-07-01T11:32:03;10.52;;;1.90;;
60014;SDS011;45867;52.480;6.056;2022-07-01T11:37:16;4.88;;;1.90;;
60014;SDS011;45867;52.480;6.056;2022-07-01T11:40:07;8.85;;;2.10;;
60014;SDS011;45867;52.480;6.056;2022-07-01T11:42:32;5.78;;;1.80;;
60014;SDS011;45867;52.480;6.056;2022-07-01T11:44:58;14.93;;;2.30;;
60014;SDS011;45867;52.480;6.056;2022-07-01T11:47:24;8.98;;;2.35;;
60014;SDS011;45867;52.480;6.056;2022-07-01T11:49:50;8.20;;;2.60;;
60014;SDS011;45867;52.480;6.056;2022-07-01T11:52:16;7.93;;;2.00;;
60014;SDS011;45867;52.480;6.056;2022-07-01T11:54:56;10.07;;;1.92;;
60014;SDS011;45867;52.480;6.056;2022-07-01T11:57:23;4.85;;;1.63;;
60014;SDS011;45867;52.480;6.056;2022-07-01T11:59:50;7.30;;;2.08;;
60014;SDS011;45867;52.480;6.056;2022-07-01T12:02:16;9.82;;;2.42;;
60014;SDS011;45867;52.480;6.056;2022-07-01T12:04:42;4.47;;;2.08;;
60014;SDS011;45867;52.480;6.056;2022-07-01T12:07:07;7.35;;;2.00;;
60014;SDS011;45867;52.480;6.056;2022-07-01T12:09:33;5.57;;;1.60;;
60014;SDS011;45867;52.480;6.056;2022-07-01T12:11:58;10.35;;;1.95;;
60014;SDS011;45867;52.480;6.056;2022-07-01T12:14:24;4.40;;;1.30;;
60014;SDS011;45867;52.480;6.056;2022-07-01T12:16:51;10.30;;;1.60;;
60014;SDS011;45867;52.480;6.056;2022-07-01T12:19:18;5.07;;;1.42;;
60014;SDS011;45867;52.480;6.056;2022-07-01T12:21:53;9.50;;;2.17;;
60014;SDS011;45867;52.480;6.056;2022-07-01T12:24:20;4.70;;;1.60;;
60014;SDS011;45867;52.480;6.056;2022-07-01T12:26:53;3.83;;;1.35;;
60014;SDS011;45867;52.480;6.056;2022-07-01T12:29:19;7.57;;;1.45;;
60014;SDS011;45867;52.480;6.056;2022-07-01T12:31:53;4.85;;;1.40;;
60014;SDS011;45867;52.480;6.056;2022-07-01T12:34:19;9.18;;;1.40;;
60014;SDS011;45867;52.480;6.056;2022-07-01T12:36:48;10.60;;;1.77;;
60014;SDS011;45867;52.480;6.056;2022-07-01T12:39:13;6.97;;;1.27;;
60014;SDS011;45867;52.480;6.056;2022-07-01T12:41:38;5.03;;;1.30;;
60014;SDS011;45867;52.480;6.056;2022-07-01T12:44:23;3.88;;;1.08;;
60014;SDS011;45867;52.480;6.056;2022-07-01T12:46:48;4.22;;;1.17;;
60014;SDS011;45867;52.480;6.056;2022-07-01T12:49:21;5.88;;;1.38;;
60014;SDS011;45867;52.480;6.056;2022-07-01T12:51:46;4.57;;;1.90;;
60014;SDS011;45867;52.480;6.056;2022-07-01T12:56:56;7.88;;;1.70;;
60014;SDS011;45867;52.480;6.056;2022-07-01T12:59:22;5.40;;;1.25;;
60014;SDS011;45867;52.480;6.056;2022-07-01T13:01:47;6.32;;;1.50;;
60014;SDS011;45867;52.480;6.056;2022-07-01T13:04:13;6.03;;;1.40;;
60014;SDS011;45867;52.480;6.056;2022-07-01T13:06:38;6.20;;;1.50;;
60014;SDS011;45867;52.480;6.056;2022-07-01T13:09:03;4.10;;;1.30;;
60014;SDS011;45867;52.480;6.056;2022-07-01T13:11:28;4.10;;;1.30;;
60014;SDS011;45867;52.480;6.056;2022-07-01T13:13:54;4.83;;;1.30;;
60014;SDS011;45867;52.480;6.056;2022-07-01T13:16:19;3.58;;;1.58;;
60014;SDS011;45867;52.480;6.056;2022-07-01T13:18:44;3.83;;;1.50;;
60014;SDS011;45867;52.480;6.056;2022-07-01T13:21:09;7.75;;;1.70;;
60014;SDS011;45867;52.480;6.056;2022-07-01T13:23:35;3.40;;;1.25;;
60014;SDS011;45867;52.480;6.056;2022-07-01T13:26:00;5.40;;;1.13;;
60014;SDS011;45867;52.480;6.056;2022-07-01T13:28:26;5.17;;;1.50;;
60014;SDS011;45867;52.480;6.056;2022-07-01T13:30:51;10.60;;;2.00;;
60014;SDS011;45867;52.480;6.056;2022-07-01T13:33:16;2.50;;;1.17;;
60014;SDS011;45867;52.480;6.056;2022-07-01T13:35:42;7.85;;;1.65;;
60014;SDS011;45867;52.480;6.056;2022-07-01T13:38:07;4.13;;;1.30;;
60014;SDS011;45867;52.480;6.056;2022-07-01T13:40:33;4.50;;;1.60;;
60014;SDS011;45867;52.480;6.056;2022-07-01T13:42:59;2.57;;;1.00;;
60014;SDS011;45867;52.480;6.056;2022-07-01T13:45:25;6.63;;;1.48;;
60014;SDS011;45867;52.480;6.056;2022-07-01T13:50:20;2.92;;;1.20;;
60014;SDS011;45867;52.480;6.056;2022-07-01T13:52:46;4.28;;;1.40;;
60014;SDS011;45867;52.480;6.056;2022-07-01T13:55:13;4.88;;;1.58;;
60014;SDS011;45867;52.480;6.056;2022-07-01T13:57:41;2.22;;;1.20;;
60014;SDS011;45867;52.480;6.056;2022-07-01T14:00:06;3.53;;;1.20;;
60014;SDS011;45867;52.480;6.056;2022-07-01T14:02:33;7.93;;;1.30;;
60014;SDS011;45867;52.480;6.056;2022-07-01T14:04:58;7.18;;;1.15;;
60014;SDS011;45867;52.480;6.056;2022-07-01T14:07:23;6.38;;;1.30;;
60014;SDS011;45867;52.480;6.056;2022-07-01T14:09:49;10.60;;;1.38;;
60014;SDS011;45867;52.480;6.056;2022-07-01T14:12:14;3.33;;;1.15;;
60014;SDS011;45867;52.480;6.056;2022-07-01T14:14:40;8.52;;;1.27;;
60014;SDS011;45867;52.480;6.056;2022-07-01T14:17:06;6.55;;;1.67;;
60014;SDS011;45867;52.480;6.056;2022-07-01T14:19:31;7.07;;;1.55;;
60014;SDS011;45867;52.480;6.056;2022-07-01T14:21:56;7.33;;;1.50;;
60014;SDS011;45867;52.480;6.056;2022-07-01T14:24:24;6.25;;;2.33;;
60014;SDS011;45867;52.480;6.056;2022-07-01T14:26:49;5.37;;;2.00;;
60014;SDS011;45867;52.480;6.056;2022-07-01T14:29:28;8.23;;;1.80;;
60014;SDS011;45867;52.480;6.056;2022-07-01T14:31:53;6.75;;;1.92;;
60014;SDS011;45867;52.480;6.056;2022-07-01T14:34:27;6.43;;;1.50;;
60014;SDS011;45867;52.480;6.056;2022-07-01T14:36:52;7.00;;;2.13;;
60014;SDS011;45867;52.480;6.056;2022-07-01T14:39:17;2.55;;;1.38;;
60014;SDS011;45867;52.480;6.056;2022-07-01T14:41:43;6.03;;;1.30;;
60014;SDS011;45867;52.480;6.056;2022-07-01T14:44:09;9.57;;;1.90;;
60014;SDS011;45867;52.480;6.056;2022-07-01T14:46:34;4.53;;;1.45;;
60014;SDS011;45867;52.480;6.056;2022-07-01T14:49:00;4.15;;;1.38;;
60014;SDS011;45867;52.480;6.056;2022-07-01T14:51:25;4.65;;;1.40;;
60014;SDS011;45867;52.480;6.056;2022-07-01T14:53:51;8.45;;;1.30;;
60014;SDS011;45867;52.480;6.056;2022-07-01T14:56:16;5.45;;;1.75;;
60014;SDS011;45867;52.480;6.056;2022-07-01T14:58:41;7.03;;;1.90;;
60014;SDS011;45867;52.480;6.056;2022-07-01T15:01:08;3.38;;;1.30;;
60014;SDS011;45867;52.480;6.056;2022-07-01T15:03:35;6.22;;;1.35;;
60014;SDS011;45867;52.480;6.056;2022-07-01T15:06:00;7.85;;;1.67;;
60014;SDS011;45867;52.480;6.056;2022-07-01T15:08:25;7.53;;;1.50;;